Time;durP1;ratioP1;P1;durP2;ratioP2;P2;SDS_P1;SDS_P2;PMS_P1;PMS_P2;Temp;Humidity;BMP_temperature;BMP_pressure;BME280_temperature;BME280_humidity;BME280_pressure;Samples;Min_cycle;Max_cycle;Signal;HPM_P1;HPM_P2
2022/10/10 00:01:22;;;;;;;5.75;1.72;;;;;;;7.93;96.95;100181.98;1755384;81;21312;-81
2022/10/10 00:03:50;;;;;;;3.05;1.70;;;;;;;7.91;97.05;100182.45;1755205;81;21949;-81
2022/10/10 00:06:17;;;;;;;3.45;1.45;;;;;;;7.88;97.16;100187.73;1755367;81;21071;-81
2022/10/10 00:08:45;;;;;;;4.92;1.77;;;;;;;7.85;97.22;100178.59;1755264;81;21528;-79
2022/10/10 00:11:15;;;;;;;2.10;1.80;;;;;;;7.83;97.38;100184.30;1755518;81;20976;-81
2022/10/10 00:13:43;;;;;;;2.42;1.40;;;;;;;7.83;97.48;100183.00;1755519;81;20980;-80
2022/10/10 00:16:09;;;;;;;3.85;1.50;;;;;;;7.79;97.64;100184.34;1755576;81;21079;-80
2022/10/10 00:18:36;;;;;;;3.35;1.70;;;;;;;7.77;97.78;100183.95;1752334;81;21119;-80
2022/10/10 00:21:03;;;;;;;3.85;1.67;;;;;;;7.74;97.85;100182.22;1741976;81;21505;-80
2022/10/10 00:23:30;;;;;;;2.58;1.55;;;;;;;7.73;97.81;100186.16;1742189;82;21059;-80
2022/10/10 00:25:59;;;;;;;3.52;1.98;;;;;;;7.73;97.87;100184.86;1742357;81;21647;-81
2022/10/10 00:28:26;;;;;;;2.75;1.60;;;;;;;7.69;97.98;100189.27;1741905;81;21040;-80
2022/10/10 00:30:53;;;;;;;5.70;1.60;;;;;;;7.67;98.04;100187.13;1742504;81;21084;-80
2022/10/10 00:33:19;;;;;;;2.92;1.70;;;;;;;7.63;98.17;100197.19;1741895;82;21114;-81
2022/10/10 00:35:48;;;;;;;4.90;1.50;;;;;;;7.59;98.21;100192.88;1742029;81;21582;-80
2022/10/10 00:38:15;;;;;;;6.25;1.67;;;;;;;7.58;98.20;100196.37;1741904;82;21810;-81
2022/10/10 00:40:50;;;;;;;2.65;1.80;;;;;;;7.56;98.39;100192.46;1742180;82;20989;-81
2022/10/10 00:43:17;;;;;;;4.72;1.60;;;;;;;7.55;98.46;100192.51;1742315;81;21079;-81
2022/10/10 00:45:45;;;;;;;4.97;1.80;;;;;;;7.54;98.39;100196.86;1742262;82;21067;-80
2022/10/10 00:48:16;;;;;;;1.50;1.30;;;;;;;7.55;98.35;100201.67;1741988;81;21743;-81
2022/10/10 00:51:06;;;;;;;4.92;1.70;;;;;;;7.52;98.36;100197.77;1741865;81;21547;-81
2022/10/10 00:53:55;;;;;;;5.10;1.50;;;;;;;7.51;98.36;100198.20;1742303;82;21508;-81
2022/10/10 00:56:27;;;;;;;4.92;1.70;;;;;;;7.49;98.29;100204.35;1741879;81;21119;-81
2022/10/10 00:58:55;;;;;;;3.05;1.72;;;;;;;7.48;98.24;100204.80;1742456;81;21217;-81
2022/10/10 01:01:22;;;;;;;3.42;1.70;;;;;;;7.47;98.22;100206.13;1741828;82;22040;-81
2022/10/10 01:03:49;;;;;;;4.70;1.80;;;;;;;7.43;98.21;100207.88;1741825;82;22228;-82
2022/10/10 01:06:15;;;;;;;6.80;1.37;;;;;;;7.41;98.18;100210.55;1741954;82;20962;-82
2022/10/10 01:08:43;;;;;;;3.87;1.65;;;;;;;7.41;98.15;100205.31;1742118;81;21024;-80
2022/10/10 01:11:27;;;;;;;4.05;2.27;;;;;;;7.39;98.14;100209.67;1742087;82;21028;-82
2022/10/10 01:14:20;;;;;;;7.35;2.05;;;;;;;7.36;98.13;100200.56;1742393;81;21515;-80
2022/10/10 01:17:10;;;;;;;4.90;1.72;;;;;;;7.34;98.04;100204.06;1742179;82;21127;-81
2022/10/10 01:19:51;;;;;;;2.45;1.45;;;;;;;7.33;98.00;100212.38;1748176;81;21032;-81
2022/10/10 01:22:23;;;;;;;3.42;1.70;;;;;;;7.31;97.96;100208.02;1754967;81;21137;-81
2022/10/10 01:25:15;;;;;;;3.40;1.62;;;;;;;7.25;98.04;100218.12;1755365;81;21661;-81
2022/10/10 01:27:48;;;;;;;1.77;1.60;;;;;;;7.22;98.04;100211.60;1719464;83;21015;-81
2022/10/10 01:30:21;;;;;;;3.40;1.72;;;;;;;7.20;98.13;100210.76;1719354;83;21562;-81
2022/10/10 01:33:10;;;;;;;9.78;2.17;;;;;;;7.16;98.24;100219.50;1719318;83;21034;-81
2022/10/10 01:36:09;;;;;;;2.20;1.60;;;;;;;7.13;98.25;100220.83;1719241;83;21465;-81
2022/10/10 01:38:44;;;;;;;5.12;2.30;;;;;;;7.09;98.42;100217.83;1719068;83;21066;-81
2022/10/10 01:41:28;;;;;;;3.00;1.75;;;;;;;7.02;98.63;100224.41;1719253;83;21103;-82
2022/10/10 01:43:56;;;;;;;1.67;1.50;;;;;;;7.01;98.76;100225.32;1691401;83;21612;-81
2022/10/10 01:46:22;;;;;;;4.60;1.90;;;;;;;6.97;98.85;100235.36;1719526;83;22107;-81
2022/10/10 01:48:51;;;;;;;9.13;2.02;;;;;;;6.92;99.07;100229.30;1719373;83;21601;-81
2022/10/10 01:51:49;;;;;;;6.12;1.60;;;;;;;6.89;99.32;100231.94;1719108;83;20987;-80
2022/10/10 01:54:37;;;;;;;4.45;1.57;;;;;;;6.88;99.41;100227.61;1718896;83;21038;-80
2022/10/10 01:57:24;;;;;;;4.85;1.72;;;;;;;6.86;99.45;100237.22;1718447;83;21261;-82
2022/10/10 02:00:03;;;;;;;6.72;1.80;;;;;;;6.83;99.59;100236.80;1718757;83;21038;-80
2022/10/10 02:02:58;;;;;;;2.70;1.50;;;;;;;6.80;99.72;100238.12;1719296;83;21074;-81
2022/10/10 02:05:50;;;;;;;4.22;1.47;;;;;;;6.77;99.87;100237.28;1718322;83;21066;-81
2022/10/10 02:08:28;;;;;;;4.15;1.87;;;;;;;6.73;100.00;100240.81;1713139;83;21109;-82
2022/10/10 02:10:59;;;;;;;6.67;1.92;;;;;;;6.68;100.00;100244.31;1719173;83;21096;-81
2022/10/10 02:13:42;;;;;;;2.08;1.75;;;;;;;6.67;100.00;100251.74;1719299;83;21058;-80
2022/10/10 02:16:18;;;;;;;5.33;2.33;;;;;;;6.67;100.00;100253.47;1718726;83;21056;-81
2022/10/10 02:18:45;;;;;;;4.05;2.27;;;;;;;6.63;100.00;100248.70;1718834;83;21031;-81
2022/10/10 02:21:12;;;;;;;4.35;1.80;;;;;;;6.61;100.00;100255.70;1706352;83;20980;-81
2022/10/10 02:23:42;;;;;;;5.35;1.98;;;;;;;6.61;100.00;100258.31;1706251;84;21224;-81
2022/10/10 02:26:11;;;;;;;4.30;1.90;;;;;;;6.58;100.00;100262.25;1705768;84;21066;-79
2022/10/10 02:28:56;;;;;;;9.98;1.70;;;;;;;6.54;100.00;100261.85;1706151;84;21020;-81
2022/10/10 02:31:31;;;;;;;9.70;2.20;;;;;;;6.53;100.00;100269.70;1706381;84;21075;-81
2022/10/10 02:34:03;;;;;;;;;;;;;;;6.47;100.00;100265.36;1708817;84;20949;-80
2022/10/10 02:36:30;;;;;;;2.67;1.87;;;;;;;6.44;100.00;100265.37;1690541;84;21919;-80
2022/10/10 02:38:57;;;;;;;3.90;2.20;;;;;;;6.41;100.00;100268.88;1692973;84;21108;-80
2022/10/10 02:41:24;;;;;;;2.70;1.70;;;;;;;6.41;100.00;100271.95;1692959;84;21155;-78
2022/10/10 02:43:50;;;;;;;6.08;2.12;;;;;;;6.39;100.00;100260.61;1692915;84;21123;-81
2022/10/10 02:46:18;;;;;;;4.45;1.70;;;;;;;6.39;100.00;100267.14;1692950;84;21057;-81
2022/10/10 02:48:44;;;;;;;1.87;1.50;;;;;;;6.39;100.00;100265.42;1692962;84;21843;-79
2022/10/10 02:51:11;;;;;;;5.25;1.70;;;;;;;6.35;100.00;100263.68;1693090;84;22106;-81
2022/10/10 02:53:38;;;;;;;4.03;1.67;;;;;;;6.35;100.00;100270.66;1692936;84;21171;-81
2022/10/10 02:56:05;;;;;;;2.10;1.60;;;;;;;6.31;100.00;100273.73;1692989;84;21144;-81
2022/10/10 02:58:32;;;;;;;7.78;2.08;;;;;;;6.29;100.00;100274.19;1692879;84;21057;-80
2022/10/10 03:00:59;;;;;;;4.55;2.15;;;;;;;6.29;100.00;100273.73;1693030;84;21832;-81
2022/10/10 03:03:25;;;;;;;2.95;1.90;;;;;;;6.26;100.00;100278.97;1693045;84;21532;-78
2022/10/10 03:05:53;;;;;;;7.45;2.22;;;;;;;6.22;100.00;100270.73;1693122;84;21100;-82
2022/10/10 03:08:19;;;;;;;2.35;1.60;;;;;;;6.20;100.00;100278.13;1693060;84;21619;-81
2022/10/10 03:10:59;;;;;;;5.00;1.70;;;;;;;6.19;100.00;100282.95;1692797;84;21057;-81
2022/10/10 03:13:26;;;;;;;2.95;2.02;;;;;;;6.18;100.00;100275.97;1692896;84;21160;-78
2022/10/10 03:15:54;;;;;;;5.28;1.87;;;;;;;6.16;100.00;100278.59;1692770;84;21108;-81
2022/10/10 03:18:21;;;;;;;5.72;1.60;;;;;;;6.14;100.00;100282.52;1693039;84;21078;-79
2022/10/10 03:20:57;;;;;;;3.42;1.87;;;;;;;6.13;100.00;100286.44;1711648;83;21027;-81
2022/10/10 03:23:24;;;;;;;5.00;1.95;;;;;;;6.12;100.00;100286.88;1750041;81;21098;-80
2022/10/10 03:25:51;;;;;;;2.77;1.60;;;;;;;6.12;100.00;100296.48;1750254;82;21205;-80
2022/10/10 03:28:17;;;;;;;5.42;1.67;;;;;;;6.09;100.00;100296.03;1714202;83;21078;-82
2022/10/10 03:30:44;;;;;;;4.33;2.30;;;;;;;6.11;100.00;100293.42;1713745;83;21039;-81
2022/10/10 03:33:11;;;;;;;4.72;2.00;;;;;;;6.11;100.00;100292.11;1713885;83;20995;-80
2022/10/10 03:35:38;;;;;;;4.60;1.77;;;;;;;6.09;100.00;100289.95;1714003;83;21051;-81
2022/10/10 03:38:06;;;;;;;5.15;1.90;;;;;;;6.06;100.00;100296.48;1713820;83;21585;-80
2022/10/10 03:40:33;;;;;;;2.85;1.67;;;;;;;6.05;100.00;100298.66;1713921;83;21078;-82
2022/10/10 03:43:01;;;;;;;4.30;1.85;;;;;;;6.07;100.00;100296.90;1713946;83;21078;-82
2022/10/10 03:45:27;;;;;;;3.30;2.00;;;;;;;6.07;100.00;100299.52;1713991;83;21043;-78
2022/10/10 03:47:54;;;;;;;8.68;2.00;;;;;;;6.05;100.00;100307.80;1713974;83;21043;-81
2022/10/10 03:50:20;;;;;;;4.65;2.00;;;;;;;6.01;100.00;100300.86;1714424;83;21108;-81
2022/10/10 03:52:47;;;;;;;2.52;1.77;;;;;;;6.00;100.00;100300.42;1713975;83;21141;-81
2022/10/10 03:55:14;;;;;;;2.58;1.80;;;;;;;5.99;100.00;100299.55;1714127;83;21067;-81
2022/10/10 03:57:40;;;;;;;3.70;1.90;;;;;;;5.95;100.00;100298.67;1713763;83;21007;-81
2022/10/10 04:00:08;;;;;;;5.47;2.10;;;;;;;5.94;100.00;100306.51;1713974;83;20984;-81
2022/10/10 04:02:35;;;;;;;5.70;2.20;;;;;;;5.93;100.00;100309.98;1714048;83;21408;-82
2022/10/10 04:05:02;;;;;;;3.60;2.30;;;;;;;5.91;100.00;100310.43;1713921;83;21968;-81
2022/10/10 04:07:30;;;;;;;1.87;1.77;;;;;;;5.89;100.00;100309.57;1713960;83;21066;-80
2022/10/10 04:09:58;;;;;;;8.48;1.98;;;;;;;5.85;100.00;100323.08;1713694;83;21117;-81
2022/10/10 04:12:25;;;;;;;6.87;2.05;;;;;;;5.84;100.00;100323.94;1713822;83;21094;-80
2022/10/10 04:14:52;;;;;;;3.50;1.95;;;;;;;5.84;100.00;100323.94;1714200;83;21211;-81
2022/10/10 04:17:18;;;;;;;3.85;1.80;;;;;;;5.83;100.00;100327.41;1714140;83;21050;-80
2022/10/10 04:19:44;;;;;;;2.30;2.02;;;;;;;5.84;100.00;100326.55;1713994;83;21117;-81
2022/10/10 04:22:11;;;;;;;2.50;1.60;;;;;;;5.84;100.00;100327.86;1713871;83;21118;-80
2022/10/10 04:24:37;;;;;;;4.33;1.80;;;;;;;5.83;100.00;100327.41;1713982;83;21075;-80
2022/10/10 04:27:04;;;;;;;3.65;2.00;;;;;;;5.84;100.00;100330.47;1714258;83;21223;-82
2022/10/10 04:29:31;;;;;;;2.67;2.30;;;;;;;5.85;100.00;100336.14;1714015;83;21066;-81
2022/10/10 04:31:58;;;;;;;2.50;1.95;;;;;;;5.85;100.00;100336.14;1713829;83;21129;-82
2022/10/10 04:34:27;;;;;;;10.15;2.15;;;;;;;5.86;100.00;100332.63;1714023;83;21620;-81
2022/10/10 04:36:54;;;;;;;2.58;2.10;;;;;;;5.86;100.00;100335.24;1713770;83;21648;-80
2022/10/10 04:39:21;;;;;;;1.95;1.82;;;;;;;5.87;100.00;100334.38;1714221;83;21106;-81
2022/10/10 04:41:48;;;;;;;2.47;1.95;;;;;;;5.87;100.00;100338.30;1713944;83;21031;-81
2022/10/10 04:44:17;;;;;;;5.20;2.20;;;;;;;5.87;100.00;100335.69;1714115;83;21067;-82
2022/10/10 04:46:43;;;;;;;6.10;2.20;;;;;;;5.89;100.00;100350.91;1713691;83;21078;-82
2022/10/10 04:49:10;;;;;;;6.58;2.30;;;;;;;5.91;100.00;100343.08;1713620;83;21004;-80
2022/10/10 04:51:37;;;;;;;5.70;2.02;;;;;;;5.93;100.00;100347.85;1713673;83;21093;-81
2022/10/10 04:54:03;;;;;;;6.47;2.42;;;;;;;5.92;100.00;100354.83;1713706;83;21054;-81
2022/10/10 04:56:30;;;;;;;3.72;2.10;;;;;;;5.92;100.00;100353.53;1714110;83;21098;-82
2022/10/10 04:58:56;;;;;;;5.28;2.33;;;;;;;5.92;100.00;100353.53;1714018;83;22260;-82
2022/10/10 05:01:23;;;;;;;4.62;2.00;;;;;;;5.97;100.00;100357.89;1714212;83;21055;-80
2022/10/10 05:03:49;;;;;;;4.15;2.12;;;;;;;6.00;100.00;100350.05;1714007;83;21271;-80
2022/10/10 05:06:16;;;;;;;2.35;2.15;;;;;;;6.01;100.00;100360.50;1714053;83;21058;-81
2022/10/10 05:08:42;;;;;;;3.62;2.08;;;;;;;6.01;100.00;100357.02;1713843;83;21098;-84
2022/10/10 05:11:08;;;;;;;5.78;2.25;;;;;;;6.05;100.00;100358.33;1713568;83;21057;-81
2022/10/10 05:13:35;;;;;;;4.85;2.72;;;;;;;6.07;100.00;100356.98;1713979;83;21000;-80
2022/10/10 05:16:04;;;;;;;2.35;2.00;;;;;;;6.11;100.00;100365.27;1713760;83;21204;-81
2022/10/10 05:18:31;;;;;;;6.62;2.33;;;;;;;6.14;100.00;100360.90;1714247;83;21007;-80
2022/10/10 05:20:58;;;;;;;2.58;2.10;;;;;;;6.17;100.00;100368.29;1710587;83;21174;-81
2022/10/10 05:23:25;;;;;;;4.33;2.12;;;;;;;6.23;100.00;100363.91;1713718;83;21634;-80
2022/10/10 05:25:51;;;;;;;6.08;2.20;;;;;;;6.26;100.00;100361.30;1713547;83;21526;-82
2022/10/10 05:28:18;;;;;;;7.30;2.33;;;;;;;6.31;100.00;100369.98;1714224;83;21463;-82
2022/10/10 05:30:45;;;;;;;4.83;2.05;;;;;;;6.30;100.00;100373.50;1713831;83;21046;-83
2022/10/10 05:33:11;;;;;;;3.45;2.40;;;;;;;6.32;100.00;100374.35;1713983;83;22114;-81
2022/10/10 05:35:38;;;;;;;4.40;2.33;;;;;;;6.36;100.00;100371.73;1713627;83;21585;-81
2022/10/10 05:38:04;;;;;;;2.58;2.02;;;;;;;6.36;100.00;100375.20;1713971;83;21515;-82
2022/10/10 05:40:31;;;;;;;7.55;2.40;;;;;;;6.37;100.00;100376.96;1714181;83;21246;-81
2022/10/10 05:42:57;;;;;;;4.87;2.17;;;;;;;6.45;100.00;100375.61;1713930;83;21075;-81
2022/10/10 05:45:24;;;;;;;2.02;1.80;;;;;;;6.56;100.00;100373.83;1713709;83;21137;-81
2022/10/10 05:47:51;;;;;;;2.83;2.10;;;;;;;6.64;100.00;100377.69;1713659;83;21047;-81
2022/10/10 05:50:26;;;;;;;4.15;1.85;;;;;;;6.67;100.00;100379.88;1714184;83;20996;-81
2022/10/10 05:52:54;;;;;;;4.47;2.42;;;;;;;6.73;100.00;100376.80;1746736;82;22638;-81
2022/10/10 05:55:21;;;;;;;2.62;1.70;;;;;;;6.81;100.00;100385.48;1750170;82;21539;-81
2022/10/10 05:57:47;;;;;;;2.72;2.30;;;;;;;6.88;100.00;100375.41;1713937;83;21503;-81
2022/10/10 06:00:14;;;;;;;4.90;2.47;;;;;;;6.95;100.00;100380.16;1714288;83;21597;-84
2022/10/10 06:02:41;;;;;;;3.00;2.00;;;;;;;7.01;100.00;100378.38;1713948;83;21122;-83
2022/10/10 06:05:08;;;;;;;2.87;2.10;;;;;;;7.06;100.00;100381.84;1713823;83;21750;-81
2022/10/10 06:07:36;;;;;;;3.22;2.20;;;;;;;7.14;100.00;100386.14;1713594;83;20991;-82
2022/10/10 06:10:04;;;;;;;4.87;2.12;;;;;;;7.25;100.00;100389.12;1713925;83;21071;-81
2022/10/10 06:12:31;;;;;;;3.12;2.05;;;;;;;7.34;100.00;100394.72;1713764;83;21075;-80
2022/10/10 06:14:57;;;;;;;2.85;1.98;;;;;;;7.43;99.85;100399.91;1713880;83;21648;-82
2022/10/10 06:17:24;;;;;;;2.67;2.20;;;;;;;7.50;99.04;100394.19;1713994;83;21861;-81
2022/10/10 06:19:52;;;;;;;6.00;2.37;;;;;;;7.59;98.99;100401.09;1713667;83;21114;-80
2022/10/10 06:22:18;;;;;;;3.47;2.08;;;;;;;7.68;98.80;100411.92;1709936;83;21034;-79
2022/10/10 06:24:45;;;;;;;3.15;2.00;;;;;;;7.76;98.35;100397.88;1706068;84;21656;-81
2022/10/10 06:27:13;;;;;;;4.28;2.05;;;;;;;7.83;97.50;100403.92;1706297;84;21151;-81
2022/10/10 06:29:40;;;;;;;5.08;2.10;;;;;;;7.89;97.03;100401.26;1706258;84;21138;-82
2022/10/10 06:32:06;;;;;;;6.78;2.33;;;;;;;7.94;96.56;100402.08;1706050;84;21059;-81
2022/10/10 06:34:33;;;;;;;3.67;2.25;;;;;;;8.03;96.54;100405.50;1706120;84;21078;-80
2022/10/10 06:37:00;;;;;;;5.62;2.08;;;;;;;8.12;96.35;100405.39;1706234;84;21058;-81
2022/10/10 06:39:26;;;;;;;4.58;2.22;;;;;;;8.20;95.43;100411.42;1706411;84;21161;-84
2022/10/10 06:41:53;;;;;;;5.50;2.83;;;;;;;8.28;95.31;100406.12;1705904;84;21649;-83
2022/10/10 06:44:20;;;;;;;4.22;1.90;;;;;;;8.40;95.34;100408.59;1706043;84;21035;-83
2022/10/10 06:46:47;;;;;;;2.50;2.27;;;;;;;8.54;95.16;100409.34;1706275;84;21530;-82
2022/10/10 06:49:13;;;;;;;3.22;2.00;;;;;;;8.62;93.71;100399.20;1706284;84;21610;-83
2022/10/10 06:51:40;;;;;;;3.12;1.70;;;;;;;8.66;92.86;100407.47;1706325;84;21566;-81
2022/10/10 06:54:06;;;;;;;2.45;2.02;;;;;;;8.68;92.94;100407.86;1706114;84;22228;-81
2022/10/10 06:56:34;;;;;;;5.05;2.35;;;;;;;8.76;92.69;100401.22;1706231;84;21000;-81
2022/10/10 06:59:01;;;;;;;6.83;1.70;;;;;;;8.87;92.57;100401.92;1706286;84;21008;-82
2022/10/10 07:01:27;;;;;;;2.00;1.90;;;;;;;8.97;91.89;100417.55;1706586;84;21091;-81
2022/10/10 07:03:54;;;;;;;5.72;2.02;;;;;;;9.03;90.99;100410.92;1706518;84;21119;-81
2022/10/10 07:06:22;;;;;;;2.92;1.98;;;;;;;9.04;90.88;100413.50;1706420;84;21153;-81
2022/10/10 07:08:57;;;;;;;4.85;2.08;;;;;;;9.11;90.63;100413.85;1707893;84;21023;-80
2022/10/10 07:11:44;;;;;;;4.00;2.40;;;;;;;9.20;90.81;100414.16;1706333;84;21071;-81
2022/10/10 07:14:30;;;;;;;4.80;2.50;;;;;;;9.38;90.28;100410.83;1706290;84;21016;-81
2022/10/10 07:16:57;;;;;;;2.58;2.22;;;;;;;9.52;90.37;100412.80;1705900;84;21111;-83
2022/10/10 07:19:23;;;;;;;3.85;2.30;;;;;;;9.69;90.24;100411.67;1706415;84;22206;-83
2022/10/10 07:21:50;;;;;;;4.17;2.37;;;;;;;9.84;89.87;100407.47;1707298;83;21066;-83
2022/10/10 07:24:17;;;;;;;6.83;2.50;;;;;;;9.96;88.92;100409.87;1713719;83;21534;-82
2022/10/10 07:26:44;;;;;;;4.72;2.37;;;;;;;10.08;87.14;100406.61;1713670;83;21503;-81
2022/10/10 07:29:11;;;;;;;5.78;2.35;;;;;;;10.13;86.93;100408.70;1713590;83;21597;-82
2022/10/10 07:31:37;;;;;;;5.75;1.98;;;;;;;10.20;86.85;100407.68;1713625;83;21588;-83
2022/10/10 07:34:05;;;;;;;3.67;2.10;;;;;;;10.26;86.02;100408.89;1713755;83;21110;-81
2022/10/10 07:36:31;;;;;;;3.58;1.87;;;;;;;10.29;85.42;100414.09;1714051;83;21068;-82
2022/10/10 07:38:57;;;;;;;3.60;1.92;;;;;;;10.27;84.56;100409.32;1714081;83;21008;-79
2022/10/10 07:41:24;;;;;;;4.75;1.75;;;;;;;10.33;85.28;100407.91;1713969;83;21122;-80
2022/10/10 07:43:54;;;;;;;3.27;1.95;;;;;;;10.46;84.89;100401.97;1714441;83;21228;-82
2022/10/10 07:46:21;;;;;;;7.08;2.27;;;;;;;10.55;84.06;100407.48;1714357;83;21110;-80
2022/10/10 07:48:49;;;;;;;5.08;2.00;;;;;;;10.62;83.12;100406.91;1715091;83;21570;-81
2022/10/10 07:51:16;;;;;;;5.00;2.00;;;;;;;10.68;82.63;100400.22;1714638;83;22122;-82
2022/10/10 07:53:43;;;;;;;4.25;1.77;;;;;;;10.77;81.79;100402.64;1713827;83;21038;-81
2022/10/10 07:56:11;;;;;;;3.70;1.40;;;;;;;10.89;81.11;100405.45;1713939;83;21093;-80
2022/10/10 07:58:39;;;;;;;3.62;1.57;;;;;;;11.00;80.35;100399.52;1713988;83;21189;-83
2022/10/10 08:01:09;;;;;;;1.40;1.30;;;;;;;11.13;78.67;100394.39;1714076;83;21047;-80
2022/10/10 08:03:35;;;;;;;5.05;1.72;;;;;;;11.21;78.08;100395.97;1714031;83;21028;-79
2022/10/10 08:06:04;;;;;;;5.55;1.67;;;;;;;11.31;78.33;100405.39;1714316;83;21031;-79
2022/10/10 08:08:33;;;;;;;1.42;1.30;;;;;;;11.45;76.96;100404.62;1713969;83;21097;-82
2022/10/10 08:10:59;;;;;;;3.75;1.47;;;;;;;11.57;75.71;100396.02;1714275;83;21035;-81
2022/10/10 08:13:26;;;;;;;3.45;1.50;;;;;;;11.64;75.83;100401.08;1714019;83;21189;-81
2022/10/10 08:15:53;;;;;;;3.37;1.40;;;;;;;11.73;75.03;100401.76;1713782;83;21571;-80
2022/10/10 08:18:20;;;;;;;3.90;1.35;;;;;;;11.82;74.67;100398.44;1713831;83;21102;-85
2022/10/10 08:20:46;;;;;;;1.32;1.10;;;;;;;11.96;73.27;100403.84;1713502;83;21871;-85
2022/10/10 08:23:13;;;;;;;2.67;1.30;;;;;;;12.03;73.51;100401.45;1709180;83;21102;-82
2022/10/10 08:25:39;;;;;;;2.05;1.27;;;;;;;12.13;71.82;100406.89;1706292;84;21072;-83
2022/10/10 08:28:06;;;;;;;2.85;1.45;;;;;;;12.16;69.48;100405.96;1705935;84;21016;-81
2022/10/10 08:30:33;;;;;;;1.82;1.10;;;;;;;12.13;69.01;100408.21;1706274;84;21083;-82
2022/10/10 08:33:00;;;;;;;3.42;1.17;;;;;;;12.11;67.92;100408.72;1706507;84;21112;-82
2022/10/10 08:35:26;;;;;;;4.47;1.40;;;;;;;12.09;68.60;100409.22;1706406;84;21047;-81
2022/10/10 08:37:53;;;;;;;1.62;1.10;;;;;;;12.11;67.91;100403.44;1706320;84;21123;-82
2022/10/10 08:40:20;;;;;;;3.98;1.60;;;;;;;12.16;68.06;100400.69;1706586;84;20996;-82
2022/10/10 08:42:50;;;;;;;3.10;0.90;;;;;;;12.27;67.60;100395.95;1706544;84;20992;-83
2022/10/10 08:45:21;;;;;;;4.50;1.47;;;;;;;12.35;67.93;100398.40;1706324;83;21175;-81
2022/10/10 08:47:53;;;;;;;5.55;1.30;;;;;;;12.48;65.82;100398.47;1706295;84;21063;-83
2022/10/10 08:50:25;;;;;;;5.83;1.50;;;;;;;12.51;65.03;100400.13;1702613;84;21039;-83
2022/10/10 08:53:00;;;;;;;1.20;1.00;;;;;;;12.52;65.61;100400.56;1706508;84;21051;-82
2022/10/10 08:55:34;;;;;;;3.45;1.10;;;;;;;12.62;66.71;100409.52;1706600;84;21047;-82
2022/10/10 08:58:23;;;;;;;;;;;;;;;12.81;66.38;100405.02;1708851;84;21247;-82
2022/10/10 09:01:10;;;;;;;2.08;1.00;;;;;;;13.00;65.83;100394.28;1693272;84;21149;-82
2022/10/10 09:03:47;;;;;;;1.55;0.80;;;;;;;13.19;64.13;100400.32;1706158;84;21052;-81
2022/10/10 09:06:37;;;;;;;1.60;0.90;;;;;;;13.28;62.64;100397.41;1706080;84;21016;-82
2022/10/10 09:09:30;;;;;;;5.05;1.10;;;;;;;13.36;62.40;100402.46;1705834;83;21594;-84
2022/10/10 09:12:11;;;;;;;4.12;1.12;;;;;;;13.44;61.64;100406.20;1706191;83;22161;-81
2022/10/10 09:15:12;;;;;;;2.98;1.60;;;;;;;13.46;59.92;100400.39;1706197;84;21150;-82
2022/10/10 09:17:58;;;;;;;2.30;1.17;;;;;;;13.51;60.61;100403.75;1706110;83;21334;-82
2022/10/10 09:21:08;;;;;;;4.28;1.20;;;;;;;13.67;60.47;100399.70;1705971;83;21020;-80
2022/10/10 09:23:50;;;;;;;3.00;1.05;;;;;;;13.85;60.58;100407.91;1701050;83;21043;-82
2022/10/10 09:26:22;;;;;;;1.07;0.80;;;;;;;14.02;58.43;100400.72;1711666;83;21131;-81
2022/10/10 09:29:00;;;;;;;1.60;0.90;;;;;;;14.11;57.90;100397.30;1711511;83;21099;-82
2022/10/10 09:31:45;;;;;;;4.05;1.07;;;;;;;14.20;57.61;100396.11;1711838;83;21103;-82
2022/10/10 09:34:24;;;;;;;2.30;0.90;;;;;;;14.35;54.90;100387.23;1711560;83;21128;-81
2022/10/10 09:36:50;;;;;;;3.75;1.00;;;;;;;14.37;54.32;100398.15;1711929;83;21131;-81
2022/10/10 09:39:26;;;;;;;0.90;0.72;;;;;;;14.42;53.97;100398.84;1711689;83;21102;-81
2022/10/10 09:41:57;;;;;;;2.12;0.65;;;;;;;14.47;53.65;100392.06;1711512;83;21602;-81
2022/10/10 09:44:24;;;;;;;4.10;0.98;;;;;;;14.53;51.56;100388.34;1711636;83;21048;-82
2022/10/10 09:46:51;;;;;;;2.15;0.60;;;;;;;14.50;51.43;100395.45;1711800;83;21559;-83
2022/10/10 09:49:19;;;;;;;1.55;1.00;;;;;;;14.54;51.62;100395.34;1711425;83;21119;-84
2022/10/10 09:51:47;;;;;;;3.08;0.98;;;;;;;14.61;50.97;100384.98;1710968;83;22418;-81
2022/10/10 09:54:17;;;;;;;2.27;0.80;;;;;;;14.60;50.90;100388.55;1711474;83;21603;-81
2022/10/10 09:56:52;;;;;;;6.97;0.93;;;;;;;14.58;50.51;100381.09;1711427;83;21084;-82
2022/10/10 09:59:38;;;;;;;1.27;0.87;;;;;;;14.57;50.94;100380.67;1712027;83;21025;-82
2022/10/10 10:02:21;;;;;;;3.05;1.12;;;;;;;14.62;51.26;100377.42;1711801;83;21115;-82
2022/10/10 10:04:48;;;;;;;1.70;1.05;;;;;;;14.75;50.03;100380.02;1711621;83;21285;-82
2022/10/10 10:07:27;;;;;;;1.00;0.80;;;;;;;14.86;49.27;100376.94;1711620;83;21622;-84
2022/10/10 10:13:55;;;;;;;1.40;0.98;;;;;;;15.08;49.31;100366.39;1711807;83;21342;-82
2022/10/10 10:16:37;;;;;;;2.45;1.10;;;;;;;15.10;47.07;100369.84;1711593;83;21075;-80
2022/10/10 10:19:09;;;;;;;3.25;0.98;;;;;;;15.05;47.49;100362.53;1711889;83;21191;-82
2022/10/10 10:21:50;;;;;;;4.40;1.10;;;;;;;15.11;48.65;100366.24;1710825;83;21091;-80
2022/10/10 10:24:23;;;;;;;1.85;0.90;;;;;;;15.24;48.92;100362.65;1706979;83;21516;-84
2022/10/10 10:26:50;;;;;;;0.98;0.80;;;;;;;15.38;46.85;100363.41;1677629;84;21024;-82
2022/10/10 10:29:31;;;;;;;1.95;0.72;;;;;;;15.44;47.30;100363.16;1705962;84;21621;-81
2022/10/10 10:32:46;;;;;;;0.95;0.72;;;;;;;15.44;46.87;100356.53;1705987;83;21158;-81
2022/10/10 10:35:28;;;;;;;2.80;0.85;;;;;;;15.52;46.87;100361.53;1705961;84;21135;-83
2022/10/10 10:38:35;;;;;;;4.03;0.95;;;;;;;15.63;46.96;100365.05;1705661;84;21012;-82
2022/10/10 10:41:13;;;;;;;2.55;0.80;;;;;;;15.70;45.72;100362.09;1705597;84;21049;-81
2022/10/10 10:43:48;;;;;;;3.30;0.90;;;;;;;15.73;45.87;100355.77;1705880;84;21095;-81
2022/10/10 10:46:39;;;;;;;2.08;0.75;;;;;;;15.80;45.70;100355.94;1698719;84;21138;-81
2022/10/10 10:49:21;;;;;;;3.35;0.80;;;;;;;15.77;45.14;100353.44;1702041;84;21000;-80
2022/10/10 10:52:23;;;;;;;1.02;0.80;;;;;;;15.73;45.28;100355.77;1705726;84;21009;-83
2022/10/10 10:55:30;;;;;;;5.50;0.80;;;;;;;15.57;43.14;100348.47;1706052;83;21497;-80
2022/10/10 10:58:32;;;;;;;1.35;0.85;;;;;;;15.55;43.97;100355.63;1705782;84;21065;-82
2022/10/10 11:01:05;;;;;;;9.45;0.70;;;;;;;15.70;45.12;100351.92;1705732;83;21808;-80
2022/10/10 11:03:43;;;;;;;1.75;0.50;;;;;;;15.91;43.75;100362.13;1704891;84;21650;-82
2022/10/10 11:06:47;;;;;;;5.17;0.70;;;;;;;16.04;43.20;100354.47;1705746;83;21054;-83
2022/10/10 11:09:25;;;;;;;2.67;0.80;;;;;;;16.22;42.39;100353.66;1706078;84;21097;-84
2022/10/10 11:12:15;;;;;;;2.50;0.60;;;;;;;16.31;41.92;100355.92;1705229;84;21155;-84
2022/10/10 11:15:14;;;;;;;2.27;0.72;;;;;;;16.42;41.87;100352.77;1706374;83;21872;-81
2022/10/10 11:17:49;;;;;;;4.15;0.60;;;;;;;16.60;41.13;100364.35;1706068;83;21083;-82
2022/10/10 11:20:30;;;;;;;11.45;0.80;;;;;;;16.75;40.03;100353.95;1706128;84;21056;-81
2022/10/10 11:23:24;;;;;;;3.40;0.70;;;;;;;16.80;40.56;100354.60;1706558;83;21678;-82
2022/10/10 11:25:56;;;;;;;3.62;0.62;;;;;;;16.90;40.81;100355.92;1712747;83;21048;-82
2022/10/10 11:28:31;;;;;;;1.35;0.90;;;;;;;16.92;38.90;100354.05;1712015;83;21708;-82
2022/10/10 11:31:02;;;;;;;1.07;0.90;;;;;;;16.84;38.72;100354.84;1711778;83;20990;-82
2022/10/10 11:33:33;;;;;;;1.62;0.95;;;;;;;16.79;39.32;100350.20;1711751;83;21079;-82
2022/10/10 11:36:07;;;;;;;0.75;0.55;;;;;;;16.83;40.38;100342.50;1711938;83;21528;-82
2022/10/10 11:38:43;;;;;;;3.12;0.60;;;;;;;16.86;39.13;100343.25;1711580;83;21675;-81
2022/10/10 11:41:29;;;;;;;2.50;0.70;;;;;;;16.77;40.54;100350.75;1712121;83;21138;-82
2022/10/10 11:44:10;;;;;;;1.17;0.78;;;;;;;16.85;39.95;100347.30;1711518;83;21067;-82
2022/10/10 11:46:57;;;;;;;1.50;0.62;;;;;;;16.95;39.13;100359.22;1712114;83;21051;-80
2022/10/10 11:49:41;;;;;;;2.15;0.70;;;;;;;17.03;38.56;100352.19;1711948;83;21079;-82
2022/10/10 11:52:17;;;;;;;0.90;0.62;;;;;;;16.85;39.17;100348.63;1711019;83;21102;-80
2022/10/10 11:55:13;;;;;;;0.98;0.85;;;;;;;16.80;39.29;100349.28;1710940;83;21167;-82